createdAt,value
2023-04-23T00:00:21.762Z,99978.97
2023-04-23T00:03:27.778Z,99977.66
2023-04-23T00:06:34.598Z,99982.19
2023-04-23T00:09:41.625Z,99987.34
2023-04-23T00:12:46.762Z,99983.22
2023-04-23T00:15:52.961Z,99987.00
2023-04-23T00:18:59.696Z,99984.93
2023-04-23T00:22:05.438Z,99995.67
2023-04-23T00:25:10.002Z,99995.67
2023-04-23T00:28:16.100Z,99991.55
2023-04-23T00:31:22.190Z,99989.84
2023-04-23T00:34:27.914Z,99994.93
2023-04-23T00:37:33.668Z,100001.71
2023-04-23T00:40:39.452Z,99996.50
2023-04-23T00:43:47.067Z,100002.62
2023-04-23T00:46:52.857Z,100004.42
2023-04-23T00:49:59.216Z,100007.30
2023-04-23T00:53:05.261Z,100007.94
2023-04-23T00:56:10.461Z,100011.59
2023-04-23T00:59:15.606Z,100007.92
2023-04-23T01:02:23.114Z,100003.73
2023-04-23T01:05:28.232Z,100014.07
2023-04-23T01:08:34.139Z,100011.14
2023-04-23T01:11:39.726Z,100018.42
2023-04-23T01:14:45.053Z,100018.14
2023-04-23T01:17:51.284Z,100012.20
2023-04-23T01:20:58.271Z,100020.30
2023-04-23T01:24:03.842Z,100014.72
2023-04-23T01:27:09.163Z,100016.84
2023-04-23T01:30:13.980Z,100013.13
2023-04-23T01:33:20.107Z,100015.67
2023-04-23T01:36:25.652Z,100014.48
2023-04-23T01:39:31.577Z,100021.38
2023-04-23T01:42:37.179Z,100010.14
2023-04-23T01:45:43.118Z,100013.92
2023-04-23T01:48:42.104Z,100017.59
2023-04-23T01:51:47.609Z,100017.03
2023-04-23T01:54:53.301Z,100015.33
2023-04-23T01:58:00.764Z,100008.20
2023-04-23T02:01:07.445Z,100016.98
2023-04-23T02:04:13.006Z,100013.73
2023-04-23T02:07:19.897Z,100009.95
2023-04-23T02:10:25.779Z,100013.97
2023-04-23T02:13:31.619Z,100012.89
2023-04-23T02:16:38.305Z,100011.64
2023-04-23T02:19:37.339Z,100010.95
2023-04-23T02:22:43.193Z,100008.59
2023-04-23T02:25:49.715Z,100007.73
2023-04-23T02:28:56.113Z,100015.88
2023-04-23T02:31:54.393Z,100017.73
2023-04-23T02:35:00.709Z,100022.83
2023-04-23T02:38:07.774Z,100029.99
2023-04-23T02:41:13.345Z,100026.21
2023-04-23T02:44:13.479Z,100030.02
2023-04-23T02:47:00.494Z,100026.11
2023-04-23T02:49:53.076Z,100035.60
2023-04-23T02:52:39.178Z,100040.17
2023-04-23T02:55:32.628Z,100046.61
2023-04-23T02:58:24.914Z,100039.61
2023-04-23T03:01:31.596Z,100039.03
2023-04-23T03:04:38.968Z,100045.00
2023-04-23T03:07:45.274Z,100047.20
2023-04-23T03:10:51.692Z,100050.44
2023-04-23T03:13:57.418Z,100052.57
2023-04-23T03:17:02.965Z,100053.05
2023-04-23T03:20:08.200Z,100052.47
2023-04-23T03:23:14.237Z,100053.95
2023-04-23T03:26:19.940Z,100058.13
2023-04-23T03:29:25.248Z,100061.02
2023-04-23T03:32:31.838Z,100062.09
2023-04-23T03:35:38.605Z,100061.73
2023-04-23T03:38:47.488Z,100064.08
2023-04-23T03:41:54.405Z,100064.84
2023-04-23T03:45:01.406Z,100074.52
2023-04-23T03:48:07.413Z,100075.62
2023-04-23T03:51:14.395Z,100076.10
2023-04-23T03:54:20.494Z,100082.36
2023-04-23T03:57:32.608Z,100077.88
2023-04-23T04:00:57.518Z,100084.64
2023-04-23T04:03:55.882Z,100077.80
2023-04-23T04:07:03.518Z,100087.20
2023-04-23T04:10:10.109Z,100086.08
2023-04-23T04:13:15.935Z,100090.09
2023-04-23T04:16:21.769Z,100097.09
2023-04-23T04:19:27.113Z,100102.05
2023-04-23T04:22:32.760Z,100098.96
2023-04-23T04:25:38.732Z,100105.26
2023-04-23T04:28:44.920Z,100109.62
2023-04-23T04:31:51.081Z,100116.89
2023-04-23T04:34:57.242Z,100116.13
2023-04-23T04:38:02.829Z,100124.59
2023-04-23T04:41:10.352Z,100128.28
2023-04-23T04:44:16.058Z,100131.07
2023-04-23T04:47:22.847Z,100130.92
2023-04-23T04:50:29.676Z,100133.84
2023-04-23T04:53:35.388Z,100137.31
2023-04-23T04:56:41.206Z,100133.44
2023-04-23T04:59:46.933Z,100137.25
2023-04-23T05:02:53.202Z,100137.55
2023-04-23T05:06:01.727Z,100136.22
2023-04-23T05:09:07.212Z,100135.97
2023-04-23T05:12:14.383Z,100140.47
2023-04-23T05:15:22.436Z,100139.16
2023-04-23T05:18:28.763Z,100137.50
2023-04-23T05:21:34.976Z,100140.73
2023-04-23T05:24:41.509Z,100144.33
2023-04-23T05:27:46.652Z,100147.23
2023-04-23T05:30:52.267Z,100154.51
2023-04-23T05:33:58.800Z,100164.05
2023-04-23T05:37:05.085Z,100161.91
2023-04-23T05:40:10.970Z,100166.89
2023-04-23T05:43:16.136Z,100171.84
2023-04-23T05:46:22.202Z,100172.09
2023-04-23T05:49:27.773Z,100180.52
2023-04-23T05:52:36.820Z,100185.08
2023-04-23T05:55:36.688Z,100176.30
2023-04-23T05:58:42.984Z,100179.25
2023-04-23T06:01:48.345Z,100182.38
2023-04-23T06:04:47.695Z,100175.98
2023-04-23T06:07:53.578Z,100177.59
2023-04-23T06:11:00.527Z,100182.33
2023-04-23T06:14:06.096Z,100175.47
2023-04-23T06:17:10.589Z,100188.00
2023-04-23T06:20:18.039Z,100183.97
2023-04-23T06:23:23.982Z,100201.08
2023-04-23T06:26:30.717Z,100202.42
2023-04-23T06:29:38.672Z,100204.78
2023-04-23T06:32:45.723Z,100203.76
2023-04-23T06:35:50.998Z,100207.00
2023-04-23T06:38:56.950Z,100207.92
2023-04-23T06:42:01.971Z,100215.67
2023-04-23T06:45:11.805Z,100214.72
2023-04-23T06:48:17.443Z,100209.65
2023-04-23T06:51:23.742Z,100213.25
2023-04-23T06:54:29.839Z,100218.89
2023-04-23T06:57:34.548Z,100219.84
2023-04-23T07:00:39.212Z,100211.23
2023-04-23T07:03:45.242Z,100218.41
2023-04-23T07:06:50.514Z,100222.09
2023-04-23T07:09:56.745Z,100214.59
2023-04-23T07:13:02.356Z,100213.81
2023-04-23T07:16:07.538Z,100219.52
2023-04-23T07:19:12.724Z,100225.53
2023-04-23T07:22:18.005Z,100227.80
2023-04-23T07:25:23.373Z,100226.47
2023-04-23T07:28:29.131Z,100228.73
2023-04-23T07:31:35.599Z,100230.03
2023-04-23T07:34:44.401Z,100234.81
2023-04-23T07:37:50.909Z,100234.84
2023-04-23T07:40:49.750Z,100240.92
2023-04-23T07:43:55.778Z,100245.18
2023-04-23T07:47:02.483Z,100241.05
2023-04-23T07:50:07.793Z,100245.08
2023-04-23T07:53:13.694Z,100247.50
2023-04-23T07:56:19.124Z,100250.64
2023-04-23T07:59:25.412Z,100246.30
2023-04-23T08:02:32.488Z,100253.50
2023-04-23T08:05:34.076Z,100251.05
2023-04-23T08:08:21.446Z,100249.46
2023-04-23T08:11:16.775Z,100251.38
2023-04-23T08:14:09.285Z,100244.14
2023-04-23T08:17:14.361Z,100239.91
2023-04-23T08:20:20.705Z,100244.47
2023-04-23T08:23:26.119Z,100237.80
2023-04-23T08:26:31.849Z,100236.65
2023-04-23T08:29:37.302Z,100237.70
2023-04-23T08:32:43.877Z,100239.83
2023-04-23T08:35:49.335Z,100243.97
2023-04-23T08:38:55.318Z,100243.14
2023-04-23T08:42:01.794Z,100245.49
2023-04-23T08:45:07.249Z,100237.33
2023-04-23T08:48:14.584Z,100240.09
2023-04-23T08:51:19.885Z,100245.30
2023-04-23T08:54:25.419Z,100242.09
2023-04-23T08:57:31.794Z,100243.05
2023-04-23T09:00:37.736Z,100241.24
2023-04-23T09:03:43.312Z,100240.25
2023-04-23T09:06:50.857Z,100237.47
2023-04-23T09:09:56.035Z,100234.68
2023-04-23T09:13:02.453Z,100231.88
2023-04-23T09:16:07.981Z,100228.05
2023-04-23T09:19:14.220Z,100232.91
2023-04-23T09:22:19.382Z,100223.66
2023-04-23T09:25:24.862Z,100213.98
2023-04-23T09:28:30.081Z,100217.72
2023-04-23T09:31:36.407Z,100221.14
2023-04-23T09:34:41.505Z,100217.34
2023-04-23T09:37:41.786Z,100216.66
2023-04-23T09:40:46.690Z,100214.66
2023-04-23T09:43:52.581Z,100220.68
2023-04-23T09:46:59.286Z,100217.08
2023-04-23T09:50:04.693Z,100208.62
2023-04-23T09:53:10.665Z,100208.86
2023-04-23T09:56:16.357Z,100208.73
2023-04-23T09:59:47.052Z,100207.64
2023-04-23T10:02:44.620Z,100208.48
2023-04-23T10:06:01.073Z,100207.11
2023-04-23T10:09:03.528Z,100210.06
2023-04-23T10:12:27.790Z,100206.65
2023-04-23T10:15:23.506Z,100198.83
2023-04-23T10:18:33.186Z,100197.33
2023-04-23T10:21:52.224Z,100194.77
2023-04-23T10:24:49.813Z,100193.58
2023-04-23T10:27:58.151Z,100188.30
2023-04-23T10:31:03.604Z,100183.72
2023-04-23T10:34:10.912Z,100179.41
2023-04-23T10:37:16.566Z,100178.98
2023-04-23T10:40:28.243Z,100178.20
2023-04-23T10:43:34.250Z,100172.21
2023-04-23T10:46:49.586Z,100173.22
2023-04-23T10:49:55.700Z,100166.59
2023-04-23T10:52:57.378Z,100177.80
2023-04-23T10:56:03.236Z,100166.01
2023-04-23T10:59:08.141Z,100174.37
2023-04-23T11:02:15.881Z,100171.58
2023-04-23T11:05:23.730Z,100167.80
2023-04-23T11:08:29.528Z,100168.59
2023-04-23T11:11:35.815Z,100167.92
2023-04-23T11:15:03.690Z,100171.89
2023-04-23T11:18:12.812Z,100166.97
2023-04-23T11:21:20.749Z,100160.84
2023-04-23T11:24:26.406Z,100164.55
2023-04-23T11:27:32.373Z,100162.55
2023-04-23T11:30:44.922Z,100170.05
2023-04-23T11:33:51.503Z,100169.55
2023-04-23T11:36:56.766Z,100169.53
2023-04-23T11:40:03.587Z,100165.69
2023-04-23T11:43:11.511Z,100159.22
2023-04-23T11:46:16.907Z,100164.89
2023-04-23T11:49:22.428Z,100161.31
2023-04-23T11:52:28.709Z,100160.62
2023-04-23T11:55:33.931Z,100160.66
2023-04-23T11:58:39.381Z,100164.21
2023-04-23T12:02:00.972Z,100156.34
2023-04-23T12:05:06.626Z,100151.70
2023-04-23T12:08:25.126Z,100146.67
2023-04-23T12:11:31.108Z,100141.91
2023-04-23T12:14:42.330Z,100139.13
2023-04-23T12:17:48.328Z,100139.46
2023-04-23T12:20:54.527Z,100143.64
2023-04-23T12:23:59.496Z,100147.35
2023-04-23T12:27:09.256Z,100144.48
2023-04-23T12:30:18.174Z,100140.84
2023-04-23T12:33:25.512Z,100138.38
2023-04-23T12:36:31.176Z,100140.33
2023-04-23T12:39:47.947Z,100136.73
2023-04-23T12:42:53.215Z,100135.41
2023-04-23T12:45:59.612Z,100128.97
2023-04-23T12:49:05.088Z,100125.23
2023-04-23T12:52:13.565Z,100126.25
2023-04-23T12:55:18.790Z,100121.02
2023-04-23T12:58:24.502Z,100127.33
2023-04-23T13:01:30.104Z,100126.85
2023-04-23T13:04:35.773Z,100134.16
2023-04-23T13:07:41.896Z,100163.37
2023-04-23T13:10:47.577Z,100151.59
2023-04-23T13:13:53.387Z,100147.11
2023-04-23T13:16:59.573Z,100169.53
2023-04-23T13:20:05.768Z,100191.59
2023-04-23T13:23:11.450Z,100162.75
2023-04-23T13:26:18.823Z,100165.39
2023-04-23T13:29:24.392Z,100170.53
2023-04-23T13:32:35.942Z,100186.20
2023-04-23T13:35:43.968Z,100194.11
2023-04-23T13:38:50.684Z,100186.25
2023-04-23T13:42:08.818Z,100205.00
2023-04-23T13:45:04.931Z,100193.05
2023-04-23T13:48:12.304Z,100194.73
2023-04-23T13:51:33.258Z,100212.09
2023-04-23T13:54:24.524Z,100213.86
2023-04-23T13:57:30.472Z,100210.19
2023-04-23T14:00:36.898Z,100211.75
2023-04-23T14:03:42.107Z,100216.39
2023-04-23T14:06:47.924Z,100219.93
2023-04-23T14:09:54.303Z,100208.58
2023-04-23T14:12:59.930Z,100206.98
2023-04-23T14:16:04.672Z,100223.66
2023-04-23T14:19:10.547Z,100209.09
2023-04-23T14:22:16.510Z,100218.85
2023-04-23T14:25:23.364Z,100211.14
2023-04-23T14:28:54.587Z,100210.88
2023-04-23T14:32:00.421Z,100215.81
2023-04-23T14:35:06.220Z,100211.25
2023-04-23T14:38:11.063Z,100208.16
2023-04-23T14:41:17.088Z,100215.11
2023-04-23T14:44:22.298Z,100206.61
2023-04-23T14:47:27.322Z,100206.76
2023-04-23T14:50:32.603Z,100205.18
2023-04-23T14:53:39.516Z,100205.64
2023-04-23T14:56:38.296Z,100194.66
2023-04-23T14:59:44.554Z,100199.52
2023-04-23T15:02:51.853Z,100193.83
2023-04-23T15:05:59.778Z,100183.55
2023-04-23T15:09:06.477Z,100180.69
2023-04-23T15:12:13.340Z,100174.42
2023-04-23T15:15:25.491Z,100172.98
2023-04-23T15:18:28.500Z,100170.89
2023-04-23T15:21:34.219Z,100170.39
2023-04-23T15:24:39.618Z,100165.86
2023-04-23T15:27:45.840Z,100166.13
2023-04-23T15:30:54.995Z,100160.20
2023-04-23T15:34:01.148Z,100168.44
2023-04-23T15:37:06.744Z,100163.53
2023-04-23T15:40:14.587Z,100162.16
2023-04-23T15:43:20.573Z,100161.38
2023-04-23T15:46:26.690Z,100156.61
2023-04-23T15:49:32.416Z,100160.84
2023-04-23T15:52:38.585Z,100162.69
2023-04-23T15:55:46.202Z,100160.64
2023-04-23T15:58:52.709Z,100154.56
2023-04-23T16:01:59.453Z,100153.98
2023-04-23T16:05:05.648Z,100161.73
2023-04-23T16:08:11.468Z,100167.33
2023-04-23T16:11:20.156Z,100164.64
2023-04-23T16:14:25.445Z,100171.48
2023-04-23T16:17:33.883Z,100177.95
2023-04-23T16:20:40.558Z,100172.39
2023-04-23T16:23:46.292Z,100181.27
2023-04-23T16:26:57.962Z,100182.52
2023-04-23T16:29:58.702Z,100179.82
2023-04-23T16:33:04.248Z,100183.97
2023-04-23T16:36:09.429Z,100183.73
2023-04-23T16:39:14.927Z,100189.11
2023-04-23T16:42:23.148Z,100187.81
2023-04-23T16:45:29.360Z,100187.00
2023-04-23T16:48:29.226Z,100181.09
2023-04-23T16:51:36.217Z,100185.70
2023-04-23T16:54:43.278Z,100190.14
2023-04-23T16:57:51.739Z,100190.56
2023-04-23T17:00:56.671Z,100198.49
2023-04-23T17:04:03.120Z,100191.55
2023-04-23T17:07:10.390Z,100205.41
2023-04-23T17:10:16.886Z,100200.24
2023-04-23T17:13:17.166Z,100201.12
2023-04-23T17:16:10.781Z,100206.62
2023-04-23T17:19:10.161Z,100198.93
2023-04-23T17:22:17.944Z,100201.88
2023-04-23T17:25:24.413Z,100208.16
2023-04-23T17:28:30.509Z,100206.62
2023-04-23T17:31:37.718Z,100209.89
2023-04-23T17:34:43.467Z,100208.38
2023-04-23T17:37:49.392Z,100207.05
2023-04-23T17:40:54.952Z,100207.69
2023-04-23T17:44:01.678Z,100216.44
2023-04-23T17:47:06.446Z,100213.07
2023-04-23T17:50:13.370Z,100212.05
2023-04-23T17:53:19.376Z,100215.84
2023-04-23T17:56:24.467Z,100208.12
2023-04-23T17:59:30.070Z,100209.35
2023-04-23T18:02:29.340Z,100208.16
2023-04-23T18:05:36.834Z,100216.70
2023-04-23T18:08:44.330Z,100217.73
2023-04-23T18:11:49.492Z,100220.30
2023-04-23T18:14:55.719Z,100225.11
2023-04-23T18:18:03.702Z,100222.06
2023-04-23T18:21:09.096Z,100220.03
2023-04-23T18:24:16.312Z,100219.84
2023-04-23T18:27:22.787Z,100223.77
2023-04-23T18:30:30.159Z,100234.36
2023-04-23T18:33:42.104Z,100228.56
2023-04-23T18:36:51.117Z,100225.31
2023-04-23T18:39:56.414Z,100230.59
2023-04-23T18:43:01.697Z,100230.59
2023-04-23T18:46:08.403Z,100231.30
2023-04-23T18:49:55.614Z,100229.45
2023-04-23T18:53:02.616Z,100225.87
2023-04-23T18:56:10.203Z,100225.16
2023-04-23T18:59:15.749Z,100227.38
2023-04-23T19:02:34.521Z,100222.44
2023-04-23T19:05:27.469Z,100223.80
2023-04-23T19:08:34.824Z,100215.61
2023-04-23T19:11:44.990Z,100209.48
2023-04-23T19:14:50.486Z,100209.99
2023-04-23T19:17:56.557Z,100210.88
2023-04-23T19:21:03.030Z,100210.84
2023-04-23T19:24:08.903Z,100206.08
2023-04-23T19:27:14.352Z,100200.28
2023-04-23T19:30:23.015Z,100195.49
2023-04-23T19:33:28.445Z,100189.36
2023-04-23T19:36:33.919Z,100190.39
2023-04-23T19:39:40.356Z,100183.89
2023-04-23T19:42:46.518Z,100188.49
2023-04-23T19:45:53.321Z,100194.81
2023-04-23T19:48:58.961Z,100190.04
2023-04-23T19:52:06.457Z,100194.77
2023-04-23T19:55:11.812Z,100192.22
2023-04-23T19:58:16.669Z,100185.58
2023-04-23T20:01:22.735Z,100187.96
2023-04-23T20:04:29.269Z,100191.54
2023-04-23T20:07:35.412Z,100194.59
2023-04-23T20:10:40.639Z,100197.16
2023-04-23T20:13:46.049Z,100189.64
2023-04-23T20:16:53.732Z,100185.38
2023-04-23T20:20:00.969Z,100186.55
2023-04-23T20:23:07.566Z,100180.06
2023-04-23T20:26:14.786Z,100181.42
2023-04-23T20:29:20.450Z,100176.86
2023-04-23T20:32:25.758Z,100178.37
2023-04-23T20:35:30.915Z,100174.95
2023-04-23T20:38:37.431Z,100176.13
2023-04-23T20:41:45.060Z,100171.89
2023-04-23T20:44:52.370Z,100165.08
2023-04-23T20:47:58.385Z,100169.66
2023-04-23T20:51:03.970Z,100164.38
2023-04-23T20:54:09.557Z,100162.69
2023-04-23T20:57:15.908Z,100159.11
2023-04-23T21:00:22.208Z,100151.78
2023-04-23T21:03:27.502Z,100161.30
2023-04-23T21:06:34.579Z,100163.66
2023-04-23T21:09:41.428Z,100161.97
2023-04-23T21:12:49.417Z,100165.14
2023-04-23T21:15:55.245Z,100163.09
2023-04-23T21:19:01.144Z,100167.70
2023-04-23T21:22:06.123Z,100168.02
2023-04-23T21:25:12.078Z,100167.81
2023-04-23T21:28:17.969Z,100163.84
2023-04-23T21:31:28.755Z,100163.22
2023-04-23T21:34:34.190Z,100168.78
2023-04-23T21:37:40.314Z,100170.80
2023-04-23T21:40:48.069Z,100171.34
2023-04-23T21:43:53.992Z,100165.67
2023-04-23T21:47:00.257Z,100164.77
2023-04-23T21:50:07.704Z,100158.13
2023-04-23T21:53:13.808Z,100159.16
2023-04-23T21:56:19.393Z,100153.33
2023-04-23T21:59:26.436Z,100154.66
2023-04-23T22:02:32.293Z,100158.23
2023-04-23T22:05:37.916Z,100157.70
2023-04-23T22:08:46.576Z,100156.66
2023-04-23T22:12:01.908Z,100151.36
2023-04-23T22:15:00.960Z,100154.59
2023-04-23T22:18:07.562Z,100154.59
2023-04-23T22:21:13.717Z,100159.88
2023-04-23T22:24:18.978Z,100155.28
2023-04-23T22:27:24.638Z,100156.94
2023-04-23T22:30:30.280Z,100151.84
2023-04-23T22:33:37.244Z,100152.48
2023-04-23T22:36:42.306Z,100147.22
2023-04-23T22:39:47.477Z,100142.64
2023-04-23T22:42:54.433Z,100146.55
2023-04-23T22:46:01.001Z,100147.89
2023-04-23T22:49:07.837Z,100140.23
2023-04-23T22:52:15.566Z,100144.66
2023-04-23T22:55:22.152Z,100141.57
2023-04-23T22:58:28.290Z,100138.72
2023-04-23T23:01:33.408Z,100135.69
2023-04-23T23:04:39.362Z,100142.00
2023-04-23T23:07:45.576Z,100146.16
2023-04-23T23:10:50.762Z,100137.11
2023-04-23T23:13:55.865Z,100139.13
2023-04-23T23:17:01.077Z,100134.53
2023-04-23T23:20:06.538Z,100127.19
2023-04-23T23:23:13.013Z,100131.66
2023-04-23T23:26:19.626Z,100131.83
2023-04-23T23:29:25.514Z,100130.12
2023-04-23T23:32:25.359Z,100122.77
2023-04-23T23:35:31.368Z,100127.71
2023-04-23T23:38:29.627Z,100120.20
2023-04-23T23:41:34.948Z,100120.91
2023-04-23T23:44:40.942Z,100125.17
2023-04-23T23:47:46.632Z,100124.66
2023-04-23T23:50:52.846Z,100124.17
2023-04-23T23:53:59.777Z,100128.43
2023-04-23T23:57:06.622Z,100126.05
